createdAt,value
2018-11-25T00:01:14.430Z,86.93
2018-11-25T00:04:17.904Z,86.69
2018-11-25T00:07:21.514Z,86.64
2018-11-25T00:10:25.090Z,86.38
2018-11-25T00:13:28.706Z,86.16
2018-11-25T00:16:32.339Z,86.42
2018-11-25T00:19:35.884Z,86.69
2018-11-25T00:22:39.482Z,87.16
2018-11-25T00:25:42.985Z,87.15
2018-11-25T00:28:46.555Z,87.29
2018-11-25T00:31:50.016Z,87.40
2018-11-25T00:34:53.599Z,87.65
2018-11-25T00:37:57.228Z,87.31
2018-11-25T00:41:00.872Z,87.41
2018-11-25T00:44:04.460Z,87.86
2018-11-25T00:47:08.025Z,88.04
2018-11-25T00:50:13.252Z,88.37
2018-11-25T00:53:17.095Z,88.16
2018-11-25T00:56:20.697Z,88.27
2018-11-25T00:59:24.262Z,88.21
2018-11-25T01:02:27.797Z,88.79
2018-11-25T01:05:31.397Z,88.91
2018-11-25T01:08:35.322Z,89.34
2018-11-25T01:11:38.959Z,88.99
2018-11-25T01:14:42.507Z,89.58
2018-11-25T01:17:46.268Z,89.44
2018-11-25T01:20:49.946Z,89.10
2018-11-25T01:23:53.682Z,89.00
2018-11-25T01:26:57.437Z,88.57
2018-11-25T01:30:00.910Z,88.23
2018-11-25T01:33:04.428Z,87.35
2018-11-25T01:36:07.934Z,87.51
2018-11-25T01:39:11.502Z,87.85
2018-11-25T01:42:15.105Z,87.71
2018-11-25T01:45:18.819Z,88.21
2018-11-25T01:48:22.296Z,88.41
2018-11-25T01:51:25.754Z,88.21
2018-11-25T01:54:29.386Z,87.98
2018-11-25T01:57:32.979Z,87.59
2018-11-25T02:00:36.638Z,87.88
2018-11-25T02:03:40.157Z,87.81
2018-11-25T02:06:43.636Z,88.06
2018-11-25T02:09:47.199Z,88.04
2018-11-25T02:12:50.774Z,88.18
2018-11-25T02:15:54.309Z,88.02
2018-11-25T02:18:57.900Z,87.75
2018-11-25T02:22:01.381Z,88.12
2018-11-25T02:25:05.746Z,87.86
2018-11-25T02:28:09.322Z,87.41
2018-11-25T02:31:12.839Z,87.51
2018-11-25T02:34:16.344Z,87.58
2018-11-25T02:37:19.799Z,87.84
2018-11-25T02:40:23.362Z,87.74
2018-11-25T02:43:26.919Z,87.65
2018-11-25T02:46:30.464Z,88.26
2018-11-25T02:49:33.970Z,87.97
2018-11-25T02:52:37.570Z,87.83
2018-11-25T02:55:41.134Z,87.61
2018-11-25T02:58:45.700Z,87.14
2018-11-25T03:01:49.167Z,86.77
2018-11-25T03:04:52.801Z,86.50
2018-11-25T03:07:56.183Z,86.81
2018-11-25T03:10:59.671Z,86.92
2018-11-25T03:14:03.239Z,86.86
2018-11-25T03:17:06.799Z,87.07
2018-11-25T03:20:14.637Z,86.87
2018-11-25T03:23:18.277Z,86.96
2018-11-25T03:26:21.820Z,86.45
2018-11-25T03:29:25.313Z,86.07
2018-11-25T03:32:28.900Z,86.17
2018-11-25T03:35:32.708Z,86.49
2018-11-25T03:38:36.207Z,86.29
2018-11-25T03:41:39.649Z,85.91
2018-11-25T03:44:43.138Z,85.99
2018-11-25T03:47:46.554Z,85.76
2018-11-25T03:50:49.985Z,85.61
2018-11-25T03:53:53.587Z,85.89
2018-11-25T03:56:57.049Z,86.38
2018-11-25T04:00:00.524Z,86.81
2018-11-25T04:03:04.037Z,86.54
2018-11-25T04:06:07.544Z,86.63
2018-11-25T04:09:10.939Z,86.14
2018-11-25T04:12:14.352Z,86.34
2018-11-25T04:15:18.874Z,86.29
2018-11-25T04:18:22.362Z,86.46
2018-11-25T04:21:25.892Z,86.75
2018-11-25T04:24:29.370Z,86.25
2018-11-25T04:27:33.220Z,86.36
2018-11-25T04:30:36.586Z,86.28
2018-11-25T04:33:40.042Z,86.35
2018-11-25T04:36:43.646Z,86.00
2018-11-25T04:39:47.334Z,85.52
2018-11-25T04:42:50.835Z,85.55
2018-11-25T04:45:54.362Z,85.53
2018-11-25T04:48:58.171Z,85.39
2018-11-25T04:52:01.647Z,85.38
2018-11-25T04:55:06.399Z,85.46
2018-11-25T04:58:10.201Z,85.22
2018-11-25T05:01:13.836Z,85.25
2018-11-25T05:04:17.519Z,85.18
2018-11-25T05:07:21.125Z,85.44
2018-11-25T05:10:24.626Z,85.50
2018-11-25T05:13:28.191Z,85.72
2018-11-25T05:16:31.757Z,85.38
2018-11-25T05:19:35.347Z,85.30
2018-11-25T05:22:38.944Z,85.10
2018-11-25T05:25:42.634Z,85.13
2018-11-25T05:29:04.091Z,85.57
2018-11-25T05:32:07.844Z,85.69
2018-11-25T05:35:23.068Z,85.50
2018-11-25T05:38:27.137Z,84.59
2018-11-25T05:41:31.005Z,84.81
2018-11-25T05:44:34.754Z,84.91
2018-11-25T05:47:39.026Z,84.28
2018-11-25T05:50:42.564Z,84.71
2018-11-25T05:53:46.463Z,84.26
2018-11-25T05:56:50.135Z,83.92
2018-11-25T05:59:53.599Z,84.50
2018-11-25T06:02:57.259Z,84.37
2018-11-25T06:06:00.793Z,84.03
2018-11-25T06:09:06.102Z,83.53
2018-11-25T06:12:09.641Z,83.81
2018-11-25T06:15:15.411Z,83.92
2018-11-25T06:18:19.156Z,83.71
2018-11-25T06:21:22.621Z,83.52
2018-11-25T06:24:26.398Z,83.56
2018-11-25T06:27:30.533Z,83.71
2018-11-25T06:30:33.573Z,83.85
2018-11-25T06:33:37.351Z,83.79
2018-11-25T06:36:40.980Z,83.69
2018-11-25T06:39:44.570Z,83.64
2018-11-25T06:42:48.265Z,83.95
2018-11-25T06:45:51.821Z,84.12
2018-11-25T06:48:55.414Z,84.47
2018-11-25T06:51:58.944Z,84.49
2018-11-25T06:55:02.528Z,84.54
2018-11-25T06:58:06.218Z,84.88
2018-11-25T07:01:10.168Z,84.89
2018-11-25T07:04:13.716Z,84.88
2018-11-25T07:07:17.269Z,84.96
2018-11-25T07:10:21.892Z,85.22
2018-11-25T07:13:25.299Z,85.20
2018-11-25T07:16:28.838Z,85.30
2018-11-25T07:19:33.433Z,85.17
2018-11-25T07:22:37.067Z,85.40
2018-11-25T07:25:42.596Z,85.21
2018-11-25T07:28:46.261Z,85.14
2018-11-25T07:31:49.817Z,84.98
2018-11-25T07:34:53.482Z,84.90
2018-11-25T07:37:57.319Z,84.90
2018-11-25T07:41:01.022Z,84.48
2018-11-25T07:44:04.813Z,84.68
2018-11-25T07:47:08.268Z,84.49
2018-11-25T07:50:13.704Z,84.06
2018-11-25T07:53:17.347Z,83.80
2018-11-25T07:56:20.912Z,83.73
2018-11-25T07:59:24.472Z,83.76
2018-11-25T08:02:27.985Z,83.75
2018-11-25T08:05:31.672Z,83.50
2018-11-25T08:08:35.169Z,83.39
2018-11-25T08:11:38.757Z,82.81
2018-11-25T08:14:42.310Z,82.77
2018-11-25T08:17:45.842Z,82.45
2018-11-25T08:20:49.350Z,82.22
2018-11-25T08:23:52.993Z,81.55
2018-11-25T08:26:56.558Z,81.23
2018-11-25T08:30:00.315Z,80.80
2018-11-25T08:33:03.861Z,80.46
2018-11-25T08:36:07.421Z,80.17
2018-11-25T08:39:11.070Z,80.06
2018-11-25T08:42:14.472Z,79.57
2018-11-25T08:45:17.975Z,79.08
2018-11-25T08:48:21.580Z,79.30
2018-11-25T08:51:25.220Z,78.14
2018-11-25T08:54:29.030Z,78.16
2018-11-25T08:57:32.643Z,77.37
2018-11-25T09:00:36.353Z,77.05
2018-11-25T09:03:39.974Z,76.66
2018-11-25T09:06:43.644Z,76.18
2018-11-25T09:09:47.217Z,76.19
2018-11-25T09:12:55.859Z,76.66
2018-11-25T09:15:55.427Z,75.50
2018-11-25T09:18:59.026Z,75.68
2018-11-25T09:22:02.554Z,75.73
2018-11-25T09:25:08.282Z,74.86
2018-11-25T09:28:11.855Z,74.29
2018-11-25T09:31:15.562Z,73.86
2018-11-25T09:34:19.270Z,73.53
2018-11-25T09:37:22.811Z,73.31
2018-11-25T09:40:27.242Z,72.82
2018-11-25T09:43:31.670Z,72.48
2018-11-25T09:46:42.443Z,71.24
2018-11-25T09:49:38.895Z,70.86
2018-11-25T09:52:42.579Z,71.00
2018-11-25T09:55:46.211Z,70.69
2018-11-25T09:58:49.596Z,70.17
2018-11-25T10:01:54.338Z,69.84
2018-11-25T10:04:57.789Z,69.58
2018-11-25T10:08:01.211Z,69.17
2018-11-25T10:11:04.908Z,70.11
2018-11-25T10:14:08.510Z,69.65
2018-11-25T10:17:12.150Z,69.77
2018-11-25T10:20:19.817Z,70.17
2018-11-25T10:23:23.338Z,68.87
2018-11-25T10:26:26.768Z,68.48
2018-11-25T10:29:30.342Z,68.93
2018-11-25T10:32:33.883Z,68.26
2018-11-25T10:35:37.799Z,68.36
2018-11-25T10:38:41.357Z,67.81
2018-11-25T10:41:45.147Z,67.46
2018-11-25T10:44:48.676Z,67.83
2018-11-25T10:47:52.089Z,68.05
2018-11-25T10:50:55.650Z,68.22
2018-11-25T10:53:59.291Z,67.56
2018-11-25T10:57:03.875Z,67.66
2018-11-25T11:00:17.324Z,66.67
2018-11-25T11:03:26.353Z,65.92
2018-11-25T11:06:36.446Z,65.36
2018-11-25T11:09:48.281Z,65.52
2018-11-25T11:12:51.798Z,65.31
2018-11-25T11:15:55.308Z,65.85
2018-11-25T11:18:58.835Z,66.42
2018-11-25T11:22:02.531Z,66.29
2018-11-25T11:25:07.629Z,64.85
2018-11-25T11:28:13.850Z,64.31
2018-11-25T11:31:20.010Z,64.49
2018-11-25T11:34:24.564Z,65.21
2018-11-25T11:37:28.450Z,65.63
2018-11-25T11:40:31.966Z,64.87
2018-11-25T11:43:35.586Z,64.46
2018-11-25T11:46:39.110Z,64.34
2018-11-25T11:49:43.526Z,64.21
2018-11-25T11:52:47.036Z,63.44
2018-11-25T11:55:50.539Z,63.53
2018-11-25T11:58:54.164Z,64.42
2018-11-25T12:01:57.698Z,63.91
2018-11-25T12:05:01.149Z,64.28
2018-11-25T12:08:04.853Z,63.54
2018-11-25T12:11:08.512Z,63.87
2018-11-25T12:14:12.700Z,64.04
2018-11-25T12:17:16.224Z,64.57
2018-11-25T12:20:21.459Z,64.69
2018-11-25T12:23:23.846Z,64.46
2018-11-25T12:26:27.638Z,64.88
2018-11-25T12:29:31.565Z,63.75
2018-11-25T12:32:34.973Z,63.42
2018-11-25T12:35:38.611Z,63.00
2018-11-25T12:38:42.104Z,62.04
2018-11-25T12:41:45.599Z,62.14
2018-11-25T12:44:49.367Z,63.09
2018-11-25T12:47:52.942Z,62.25
2018-11-25T12:50:56.440Z,60.72
2018-11-25T12:54:00.023Z,61.10
2018-11-25T12:57:03.685Z,60.70
2018-11-25T13:00:26.507Z,60.63
2018-11-25T13:03:30.216Z,59.14
2018-11-25T13:06:33.804Z,58.40
2018-11-25T13:09:37.405Z,58.87
2018-11-25T13:12:40.822Z,62.32
2018-11-25T13:15:44.318Z,66.54
2018-11-25T13:18:47.936Z,68.25
2018-11-25T13:21:51.509Z,70.03
2018-11-25T13:24:55.050Z,70.90
2018-11-25T13:27:58.702Z,71.49
2018-11-25T13:31:02.210Z,72.10
2018-11-25T13:34:05.855Z,73.04
2018-11-25T13:37:09.573Z,73.64
2018-11-25T13:40:14.547Z,74.12
2018-11-25T13:43:18.063Z,74.85
2018-11-25T13:46:21.594Z,75.93
2018-11-25T13:49:25.173Z,76.63
2018-11-25T13:52:28.777Z,76.35
2018-11-25T13:55:32.426Z,76.75
2018-11-25T13:58:36.086Z,76.84
2018-11-25T14:01:39.612Z,77.10
2018-11-25T14:04:43.013Z,77.17
2018-11-25T14:07:47.572Z,77.46
2018-11-25T14:10:58.043Z,77.49
2018-11-25T14:14:01.677Z,77.58
2018-11-25T14:17:05.400Z,78.15
2018-11-25T14:20:09.902Z,78.50
2018-11-25T14:23:14.469Z,78.92
2018-11-25T14:26:23.577Z,79.43
2018-11-25T14:29:27.534Z,79.87
2018-11-25T14:32:31.100Z,80.19
2018-11-25T14:35:34.514Z,81.17
2018-11-25T14:38:38.056Z,81.54
2018-11-25T14:41:41.759Z,81.51
2018-11-25T14:44:45.330Z,81.98
2018-11-25T14:47:48.866Z,82.62
2018-11-25T14:50:52.510Z,82.98
2018-11-25T14:53:56.180Z,83.62
2018-11-25T14:56:59.717Z,84.45
2018-11-25T15:00:04.141Z,85.43
2018-11-25T15:03:08.027Z,86.18
2018-11-25T15:06:11.592Z,86.51
2018-11-25T15:09:15.096Z,87.32
2018-11-25T15:12:18.648Z,87.96
2018-11-25T15:15:22.214Z,87.96
2018-11-25T15:18:26.785Z,87.78
2018-11-25T15:21:30.345Z,88.31
2018-11-25T15:24:33.813Z,88.58
2018-11-25T15:27:37.348Z,88.72
2018-11-25T15:30:41.817Z,88.88
2018-11-25T15:33:45.278Z,89.16
2018-11-25T15:36:48.720Z,89.53
2018-11-25T15:39:52.226Z,88.68
2018-11-25T15:42:55.751Z,86.77
2018-11-25T15:45:59.635Z,86.08
2018-11-25T15:49:03.185Z,83.04
2018-11-25T15:52:06.766Z,81.59
2018-11-25T15:55:12.154Z,80.36
2018-11-25T15:58:15.640Z,78.39
2018-11-25T16:01:19.269Z,77.80
2018-11-25T16:04:22.760Z,76.90
2018-11-25T16:07:26.202Z,76.82
2018-11-25T16:10:29.670Z,75.98
2018-11-25T16:13:33.198Z,75.60
2018-11-25T16:16:36.647Z,75.02
2018-11-25T16:19:40.079Z,74.87
2018-11-25T16:22:43.995Z,75.12
2018-11-25T16:25:49.527Z,74.91
2018-11-25T16:28:55.170Z,75.41
2018-11-25T16:31:58.810Z,75.18
2018-11-25T16:35:02.428Z,75.53
2018-11-25T16:38:06.935Z,75.66
2018-11-25T16:41:10.539Z,75.77
2018-11-25T16:44:14.143Z,75.58
2018-11-25T16:47:17.674Z,75.69
2018-11-25T16:50:25.360Z,75.04
2018-11-25T16:53:25.875Z,76.17
2018-11-25T16:56:29.477Z,76.04
2018-11-25T16:59:33.119Z,76.09
2018-11-25T17:02:36.831Z,76.04
2018-11-25T17:05:42.377Z,75.97
2018-11-25T17:08:46.429Z,76.38
2018-11-25T17:11:50.093Z,76.81
2018-11-25T17:14:53.761Z,76.40
2018-11-25T17:17:57.411Z,76.39
2018-11-25T17:21:00.933Z,76.56
2018-11-25T17:24:04.620Z,76.83
2018-11-25T17:27:08.178Z,77.90
2018-11-25T17:30:26.421Z,78.26
2018-11-25T17:33:30.044Z,78.23
2018-11-25T17:36:33.575Z,78.71
2018-11-25T17:39:37.108Z,78.68
2018-11-25T17:42:40.839Z,78.86
2018-11-25T17:45:44.470Z,79.74
2018-11-25T17:48:48.992Z,79.64
2018-11-25T17:51:52.551Z,79.34
2018-11-25T17:54:56.342Z,80.56
2018-11-25T17:57:59.990Z,79.99
2018-11-25T18:01:06.312Z,79.87
2018-11-25T18:04:09.885Z,80.26
2018-11-25T18:07:13.447Z,80.10
2018-11-25T18:10:17.025Z,80.43
2018-11-25T18:13:22.052Z,80.06
2018-11-25T18:16:25.566Z,80.44
2018-11-25T18:19:29.197Z,80.48
2018-11-25T18:22:32.786Z,79.99
2018-11-25T18:25:36.295Z,80.01
2018-11-25T18:28:40.326Z,80.38
2018-11-25T18:31:44.098Z,79.54
2018-11-25T18:34:47.774Z,79.95
2018-11-25T18:37:51.397Z,79.53
2018-11-25T18:40:54.889Z,79.94
2018-11-25T18:43:58.583Z,80.08
2018-11-25T18:47:02.316Z,79.23
2018-11-25T18:50:07.581Z,79.23
2018-11-25T18:53:11.892Z,79.63
2018-11-25T18:56:15.592Z,79.60
2018-11-25T18:59:19.209Z,79.67
2018-11-25T19:02:27.906Z,79.46
2018-11-25T19:05:31.571Z,79.49
2018-11-25T19:08:35.080Z,79.95
2018-11-25T19:11:38.577Z,79.74
2018-11-25T19:14:42.055Z,79.62
2018-11-25T19:17:45.786Z,79.49
2018-11-25T19:20:49.448Z,79.03
2018-11-25T19:23:55.147Z,79.50
2018-11-25T19:26:58.653Z,79.54
2018-11-25T19:30:03.719Z,79.65
2018-11-25T19:33:07.304Z,80.02
2018-11-25T19:36:10.953Z,79.52
2018-11-25T19:39:14.459Z,79.68
2018-11-25T19:42:17.971Z,80.12
2018-11-25T19:45:24.571Z,80.42
2018-11-25T19:48:28.178Z,79.72
2018-11-25T19:51:31.689Z,79.57
2018-11-25T19:54:36.374Z,80.35
2018-11-25T19:57:40.309Z,80.03
2018-11-25T20:00:43.883Z,80.31
2018-11-25T20:03:47.422Z,79.81
2018-11-25T20:06:50.839Z,79.97
2018-11-25T20:09:54.313Z,79.90
2018-11-25T20:12:58.773Z,80.32
2018-11-25T20:17:10.247Z,80.10
2018-11-25T20:20:15.639Z,79.89
2018-11-25T20:23:19.196Z,79.82
2018-11-25T20:26:22.925Z,80.04
2018-11-25T20:29:26.304Z,80.10
2018-11-25T20:32:35.006Z,79.96
2018-11-25T20:35:38.492Z,79.98
2018-11-25T20:38:48.415Z,79.78
2018-11-25T20:41:51.858Z,79.80
2018-11-25T20:44:55.585Z,80.20
2018-11-25T20:47:59.872Z,80.13
2018-11-25T20:51:03.417Z,80.22
2018-11-25T20:54:06.892Z,80.39
2018-11-25T20:57:10.585Z,80.49
2018-11-25T21:00:18.041Z,80.54
2018-11-25T21:03:21.599Z,80.31
2018-11-25T21:06:25.123Z,80.32
2018-11-25T21:09:28.529Z,80.24
2018-11-25T21:12:31.935Z,80.30
2018-11-25T21:15:35.402Z,80.46
2018-11-25T21:18:38.952Z,79.97
2018-11-25T21:21:42.472Z,79.83
2018-11-25T21:24:46.038Z,79.65
2018-11-25T21:27:49.659Z,79.76
2018-11-25T21:30:53.257Z,79.92
2018-11-25T21:33:56.772Z,79.78
2018-11-25T21:37:00.274Z,80.02
2018-11-25T21:40:04.804Z,79.73
2018-11-25T21:43:08.368Z,79.93
2018-11-25T21:46:12.059Z,79.46
2018-11-25T21:49:15.710Z,79.84
2018-11-25T21:52:19.228Z,80.18
2018-11-25T21:55:23.186Z,80.51
2018-11-25T21:58:28.783Z,80.47
2018-11-25T22:01:30.490Z,80.40
2018-11-25T22:04:34.196Z,79.93
2018-11-25T22:07:37.798Z,80.00
2018-11-25T22:10:41.520Z,80.33
2018-11-25T22:13:45.206Z,80.44
2018-11-25T22:16:48.797Z,80.70
2018-11-25T22:19:52.529Z,80.31
2018-11-25T22:22:56.431Z,80.30
2018-11-25T22:26:00.045Z,80.06
2018-11-25T22:29:03.578Z,80.34
2018-11-25T22:32:07.119Z,80.34
2018-11-25T22:35:12.998Z,80.46
2018-11-25T22:38:16.406Z,80.61
2018-11-25T22:41:19.952Z,80.62
2018-11-25T22:44:23.634Z,80.67
2018-11-25T22:47:27.191Z,80.69
2018-11-25T22:50:30.828Z,80.83
2018-11-25T22:53:34.294Z,80.91
2018-11-25T22:56:38.914Z,80.42
2018-11-25T22:59:42.582Z,80.24
2018-11-25T23:02:46.332Z,80.25
2018-11-25T23:06:01.042Z,80.04
2018-11-25T23:09:07.521Z,80.05
2018-11-25T23:12:11.209Z,79.97
2018-11-25T23:15:14.774Z,79.83
2018-11-25T23:18:18.376Z,79.84
2018-11-25T23:21:22.041Z,79.94
2018-11-25T23:24:25.581Z,79.71
2018-11-25T23:27:33.084Z,79.27
2018-11-25T23:30:37.687Z,79.45
2018-11-25T23:33:41.227Z,79.41
2018-11-25T23:36:44.734Z,79.42
2018-11-25T23:39:49.301Z,78.79
2018-11-25T23:42:52.758Z,78.37
2018-11-25T23:45:56.416Z,77.97
2018-11-25T23:49:00.053Z,78.24
2018-11-25T23:52:03.742Z,78.05
2018-11-25T23:55:10.725Z,77.85
2018-11-25T23:58:14.336Z,77.70
